Time;durP1;ratioP1;P1;durP2;ratioP2;P2;SDS_P1;SDS_P2;PMS_P1;PMS_P2;Temp;Humidity;BMP_temperature;BMP_pressure;BME280_temperature;BME280_humidity;BME280_pressure;Samples;Min_cycle;Max_cycle;Signal;HPM_P1;HPM_P2
2021/01/16 00:01:07;;;;;;;;;6.00;6.00;20.00;81.20;;;18.77;63.58;102275.06;5014955;28;8804;-55
2021/01/16 00:03:34;;;;;;;;;6.75;6.00;20.10;81.30;;;18.79;63.63;102288.34;5035571;28;8792;-56
2021/01/16 00:06:03;;;;;;;;;8.25;7.00;20.10;81.30;;;18.80;63.02;102295.41;5028578;28;9514;-55
2021/01/16 00:08:31;;;;;;;;;6.50;6.00;19.80;81.10;;;18.79;62.81;102283.84;5030053;28;8893;-56
2021/01/16 00:11:00;;;;;;;;;7.50;6.50;19.90;81.20;;;18.80;62.97;102268.63;5028163;28;8837;-56
2021/01/16 00:13:33;;;;;;;;;6.00;6.00;20.00;81.20;;;18.81;62.98;102267.69;5030052;28;8855;-56
2021/01/16 00:16:04;;;;;;;;;4.75;4.25;20.20;81.40;;;18.82;63.21;102267.53;5024726;28;8822;-55
2021/01/16 00:18:32;;;;;;;;;6.50;6.50;20.00;81.50;;;18.82;63.07;102251.47;5033329;28;9608;-55
2021/01/16 00:21:00;;;;;;;;;4.00;3.75;20.00;81.30;;;18.84;63.05;102249.53;5034146;28;8786;-51
2021/01/16 00:23:29;;;;;;;;;6.00;6.00;20.00;81.20;;;18.87;62.95;102265.34;5029909;28;8806;-55
2021/01/16 00:25:58;;;;;;;;;8.25;7.75;20.00;81.20;;;18.87;63.00;102264.50;5024633;28;8832;-55
2021/01/16 00:28:32;;;;;;;;;5.00;5.00;20.00;81.30;;;18.86;63.54;102273.53;5018967;28;8902;-54
2021/01/16 00:31:01;;;;;;;;;8.00;7.00;20.10;81.80;;;18.89;63.81;102289.34;5025850;28;8817;-51
2021/01/16 00:33:31;;;;;;;;;7.25;5.75;19.90;82.00;;;18.88;63.58;102303.72;5026821;28;8852;-56
2021/01/16 00:36:00;;;;;;;;;5.75;5.50;20.00;82.00;;;18.90;63.75;102303.59;5004529;28;8845;-55
2021/01/16 00:38:29;;;;;;;;;6.25;5.25;20.00;82.00;;;18.93;63.20;102297.97;5021196;28;8934;-57
2021/01/16 00:40:57;;;;;;;;;6.50;6.50;20.20;82.30;;;18.94;62.75;102297.03;5017816;28;8802;-55
2021/01/16 00:43:24;;;;;;;;;5.00;5.00;20.10;81.80;;;19.00;62.61;102307.25;5026806;28;8816;-55
2021/01/16 00:45:52;;;;;;;;;7.50;6.50;20.00;81.50;;;19.01;62.95;102309.81;5022848;28;8829;-53
2021/01/16 00:48:22;;;;;;;;;6.75;6.50;20.10;81.40;;;19.04;62.53;102311.41;5023209;28;8809;-56
2021/01/16 00:50:52;;;;;;;;;8.00;7.25;20.30;81.60;;;19.06;61.86;102313.00;5032382;28;8803;-54
2021/01/16 00:53:19;;;;;;;;;6.75;6.25;20.10;81.20;;;19.08;62.77;102315.53;5032424;28;8783;-50
2021/01/16 00:55:46;;;;;;;;;9.25;9.00;19.90;81.30;;;19.11;62.57;102323.34;5032095;28;8812;-57
2021/01/16 00:58:18;;;;;;;;;10.00;8.00;20.10;81.60;;;19.12;61.75;102324.22;5028044;28;8814;-56
2021/01/16 01:00:50;;;;;;;;;6.75;6.50;20.10;81.20;;;19.10;60.59;102324.31;5029334;28;8899;-51
2021/01/16 01:03:22;;;;;;;;;10.50;8.75;20.00;79.70;;;19.14;61.71;102320.44;5015656;28;8796;-56
2021/01/16 01:05:50;;;;;;;;;9.75;8.75;20.20;81.60;;;19.13;61.08;102317.88;5022340;28;8810;-52
2021/01/16 01:08:25;;;;;;;;;10.25;9.25;20.10;80.80;;;19.16;60.30;102323.84;5027040;28;8798;-55
2021/01/16 01:10:51;;;;;;;;;8.00;8.00;20.00;80.20;;;19.16;60.69;102329.22;5030983;28;8871;-53
2021/01/16 01:13:18;;;;;;;;;7.75;7.50;19.90;80.20;;;19.18;60.21;102321.88;5027123;28;8785;-56
2021/01/16 01:15:45;;;;;;;;;9.00;8.75;19.90;80.00;;;19.19;59.48;102318.25;5029237;28;8847;-55
2021/01/16 01:18:12;;;;;;;;;7.50;7.00;19.80;79.50;;;19.19;59.20;102328.97;5029701;28;8892;-55
2021/01/16 01:20:39;;;;;;;;;7.25;7.25;19.90;79.20;;;19.23;58.97;102338.47;5030517;28;8806;-52
2021/01/16 01:23:06;;;;;;;;;8.00;7.75;19.90;79.10;;;19.23;60.61;102341.16;5029996;28;9945;-53
2021/01/16 01:25:33;;;;;;;;;7.75;7.75;19.90;80.30;;;19.25;59.68;102344.53;5026905;28;8813;-55
2021/01/16 01:28:01;;;;;;;;;7.25;7.00;20.20;79.70;;;19.26;59.50;102353.47;5024974;28;8819;-57
2021/01/16 01:30:31;;;;;;;;;10.50;9.00;20.10;79.70;;;19.27;59.78;102347.13;5022928;28;8816;-57
2021/01/16 01:32:59;;;;;;;;;6.00;4.00;20.20;79.90;;;19.30;60.10;102357.59;5025081;28;8818;-52
2021/01/16 01:35:27;;;;;;;;;8.50;7.00;20.20;80.00;;;19.30;60.24;102353.06;5022954;28;8824;-55
2021/01/16 01:37:56;;;;;;;;;10.00;9.00;20.20;80.10;;;19.32;60.21;102344.94;5022732;28;8812;-55
2021/01/16 01:40:26;;;;;;;;;8.50;7.00;20.20;80.10;;;19.34;60.45;102337.63;5022568;28;8796;-54
2021/01/16 01:42:56;;;;;;;;;8.75;8.75;20.10;80.20;;;19.35;60.44;102354.56;5023998;28;8833;-54
2021/01/16 01:45:25;;;;;;;;;7.50;7.25;20.30;80.40;;;19.35;60.44;102343.84;5025483;28;8811;-54
2021/01/16 01:47:54;;;;;;;;;8.00;7.25;20.20;80.30;;;19.37;60.66;102344.56;5030508;28;8806;-57
2021/01/16 01:50:21;;;;;;;;;8.75;7.25;20.30;80.30;;;19.38;60.48;102346.28;5030057;28;8803;-54
2021/01/16 01:52:49;;;;;;;;;7.75;7.75;20.20;80.40;;;19.40;60.41;102345.19;5019263;28;8794;-55
2021/01/16 01:55:16;;;;;;;;;8.00;6.75;20.20;80.40;;;19.41;60.41;102329.94;5019820;28;9529;-55
2021/01/16 01:57:54;;;;;;;;;7.25;6.50;20.30;80.50;;;19.43;60.43;102325.31;5024427;28;8993;-54
2021/01/16 02:00:24;;;;;;;;;6.75;6.75;20.20;80.70;;;19.41;60.46;102325.47;5025156;28;8772;-56
2021/01/16 02:02:53;;;;;;;;;8.25;7.50;20.30;80.50;;;19.44;60.48;102338.63;5024081;28;8903;-55
2021/01/16 02:05:19;;;;;;;;;6.00;5.50;20.10;80.40;;;19.45;60.46;102326.06;5009352;28;9357;-49
2021/01/16 02:07:47;;;;;;;;;9.00;6.50;20.30;80.40;;;19.44;60.50;102325.22;5019828;28;8782;-54
2021/01/16 02:10:23;;;;;;;;;5.25;5.25;20.40;80.50;;;19.47;60.40;102329.47;5016069;28;8849;-55
2021/01/16 02:12:55;;;;;;;;;7.25;6.00;20.30;80.50;;;19.48;60.47;102334.69;5027903;28;8783;-54
2021/01/16 02:15:25;;;;;;;;;7.25;6.50;20.50;80.70;;;19.49;60.42;102335.56;5033338;28;8804;-56
2021/01/16 02:17:58;;;;;;;;;7.00;6.25;20.30;80.40;;;19.52;60.46;102329.97;5020663;28;8804;-55
2021/01/16 02:20:35;;;;;;;;;6.50;6.50;20.60;80.60;;;19.51;60.44;102310.34;5018175;28;8838;-57
2021/01/16 02:23:07;;;;;;;;;7.00;7.00;20.30;80.40;;;19.52;60.38;102304.00;5016214;28;8780;-54
2021/01/16 02:25:40;;;;;;;;;3.00;3.00;20.30;80.50;;;19.53;60.44;102316.41;5020730;28;8867;-54
2021/01/16 02:28:26;;;;;;;;;9.25;7.00;20.30;80.60;;;19.55;60.52;102312.78;5017923;28;8948;-53
2021/01/16 02:30:54;;;;;;;;;6.75;5.00;20.30;80.50;;;19.57;60.55;102308.16;5025029;28;8873;-57
2021/01/16 02:33:25;;;;;;;;;5.50;5.00;20.50;81.30;;;19.58;60.41;102308.00;5004763;28;8780;-57
2021/01/16 02:36:39;;;;;;;;;6.50;6.00;20.40;80.60;;;19.60;60.43;102315.94;5026150;28;8806;-56
2021/01/16 02:39:20;;;;;;;;;7.75;7.00;20.10;80.40;;;19.59;60.47;102324.94;5027027;28;8779;-52
2021/01/16 02:42:09;;;;;;;;;8.25;6.00;20.50;80.70;;;19.62;60.38;102322.03;5022970;28;8954;-52
2021/01/16 02:44:39;;;;;;;;;4.50;4.00;20.40;80.70;;;19.61;60.32;102321.16;5017674;28;8816;-55
2021/01/16 02:47:48;;;;;;;;;5.00;5.00;20.40;80.60;;;19.62;60.42;102330.09;5022417;28;8796;-56
2021/01/16 02:50:21;;;;;;;;;3.50;3.50;20.30;80.60;;;19.62;60.34;102330.94;5014240;28;9516;-57
2021/01/16 02:52:50;;;;;;;;;7.25;7.25;20.40;80.60;;;19.61;60.60;102321.16;5018193;28;8812;-52
2021/01/16 02:55:18;;;;;;;;;7.25;6.75;20.40;80.60;;;19.62;61.01;102319.38;5020808;28;8802;-54
2021/01/16 02:57:45;;;;;;;;;8.25;6.00;20.40;80.90;;;19.59;61.35;102325.81;5029458;28;8927;-52
2021/01/16 03:00:18;;;;;;;;;6.50;5.50;20.30;80.80;;;19.56;60.85;102326.03;5017306;28;8824;-55
2021/01/16 03:02:45;;;;;;;;;6.50;6.00;20.40;81.10;;;19.55;60.77;102327.03;5018946;28;8792;-50
2021/01/16 03:05:12;;;;;;;;;4.75;4.75;20.20;81.00;;;19.50;60.78;102316.66;5021758;28;8902;-54
2021/01/16 03:07:42;;;;;;;;;7.50;6.00;20.20;81.10;;;19.50;60.73;102321.19;5031790;28;8792;-55
2021/01/16 03:10:11;;;;;;;;;6.50;6.50;20.20;81.10;;;19.50;60.83;102331.91;5028445;28;8836;-58
2021/01/16 03:12:39;;;;;;;;;6.75;6.00;20.30;81.20;;;19.49;61.02;102332.91;5020678;28;8840;-55
2021/01/16 03:15:18;;;;;;;;;4.50;4.50;20.30;81.10;;;19.51;61.21;102333.59;5027592;28;8915;-53
2021/01/16 03:17:51;;;;;;;;;7.00;6.00;20.40;81.30;;;19.49;61.31;102338.25;5027649;28;8848;-53
2021/01/16 03:20:30;;;;;;;;;6.50;6.50;20.40;81.10;;;19.50;61.39;102348.84;5023164;28;8824;-56
2021/01/16 03:23:01;;;;;;;;;9.75;7.50;20.20;80.80;;;19.47;61.26;102333.00;5013442;28;8792;-56
2021/01/16 03:25:32;;;;;;;;;6.00;6.00;20.60;80.90;;;19.47;61.34;102333.00;5027997;28;8805;-54
2021/01/16 03:28:00;;;;;;;;;10.00;9.00;20.40;80.90;;;19.47;61.46;102332.16;5032447;28;9508;-55
2021/01/16 03:30:27;;;;;;;;;7.50;6.00;20.40;80.80;;;19.46;61.49;102319.72;5018777;28;8824;-53
2021/01/16 03:32:54;;;;;;;;;7.50;6.50;20.30;81.10;;;19.45;61.51;102323.38;5026294;28;8802;-55
2021/01/16 03:35:26;;;;;;;;;8.75;8.75;20.40;81.20;;;19.43;61.50;102319.97;5024547;28;8941;-55
2021/01/16 03:37:55;;;;;;;;;7.50;6.25;20.40;81.10;;;19.43;61.63;102307.41;5020436;28;8830;-55
2021/01/16 03:40:23;;;;;;;;;6.50;6.50;20.50;81.20;;;19.42;61.76;102313.75;5020080;28;9503;-54
2021/01/16 03:42:50;;;;;;;;;10.75;6.50;20.20;81.20;;;19.41;61.92;102313.88;5019791;28;8787;-56
2021/01/16 03:45:23;;;;;;;;;7.75;6.50;20.20;80.80;;;19.41;61.80;102305.81;5023399;28;9592;-56
2021/01/16 03:47:51;;;;;;;;;9.00;9.00;20.40;81.40;;;19.41;61.94;102313.88;5029707;28;9531;-56
2021/01/16 03:50:17;;;;;;;;;8.00;8.00;20.40;81.40;;;19.39;61.90;102315.84;5009837;28;8829;-53
2021/01/16 03:52:45;;;;;;;;;6.75;6.25;20.40;81.50;;;19.38;61.97;102306.91;5015788;28;8792;-55
2021/01/16 03:55:12;;;;;;;;;7.25;6.00;20.40;81.50;;;19.36;62.12;102302.66;5020007;28;8818;-55
2021/01/16 03:57:39;;;;;;;;;8.25;8.25;20.40;81.50;;;19.37;61.96;102313.25;5025609;28;8836;-54
2021/01/16 04:00:08;;;;;;;;;9.00;9.00;20.20;81.40;;;19.35;62.04;102301.81;5014021;28;8780;-53
2021/01/16 04:02:36;;;;;;;;;9.75;9.50;20.50;82.20;;;19.34;62.17;102296.59;5022142;28;9503;-54
2021/01/16 04:05:03;;;;;;;;;10.00;10.00;20.30;81.40;;;19.32;61.88;102302.06;5025008;28;8792;-56
2021/01/16 04:07:30;;;;;;;;;9.50;9.50;20.40;81.30;;;19.32;61.76;102309.25;5023079;28;8802;-52
2021/01/16 04:10:00;;;;;;;;;9.75;9.75;20.30;81.00;;;19.30;61.55;102314.72;5029621;28;8892;-52
2021/01/16 04:12:28;;;;;;;;;11.75;11.75;20.20;80.80;;;19.28;61.65;102309.50;5022097;28;8801;-51
2021/01/16 04:14:56;;;;;;;;;13.75;12.00;20.20;80.80;;;19.27;61.61;102310.47;5022003;28;8778;-53
2021/01/16 04:17:22;;;;;;;;;13.00;13.00;20.30;80.90;;;19.27;61.62;102299.75;5024757;28;8830;-52
2021/01/16 04:19:49;;;;;;;;;14.75;14.75;20.40;80.90;;;19.24;61.51;102307.19;5021979;28;8881;-52
2021/01/16 04:22:16;;;;;;;;;14.00;14.00;20.00;80.60;;;19.24;61.44;102296.47;5018711;28;8877;-54
2021/01/16 04:24:43;;;;;;;;;15.50;14.75;20.50;80.80;;;19.22;61.47;102295.72;5023104;28;8818;-53
2021/01/16 04:27:10;;;;;;;;;15.50;15.50;20.40;80.70;;;19.21;61.42;102276.13;5015604;28;8861;-51
2021/01/16 04:29:36;;;;;;;;;15.75;15.50;20.30;80.70;;;19.20;61.31;102270.88;5019353;28;8838;-54
2021/01/16 04:32:04;;;;;;;;;17.50;17.00;20.20;80.50;;;19.20;61.29;102268.19;5019697;28;8794;-55
2021/01/16 04:34:30;;;;;;;;;19.50;18.50;20.20;80.50;;;19.17;61.22;102268.44;5019922;28;8825;-56
2021/01/16 04:36:57;;;;;;;;;22.75;20.75;20.20;80.50;;;19.16;61.32;102266.72;5023199;28;8845;-52
2021/01/16 04:39:24;;;;;;;;;21.00;20.25;20.10;80.40;;;19.15;60.95;102271.22;5017384;28;8786;-54
2021/01/16 04:41:53;;;;;;;;;22.25;20.75;20.20;80.40;;;19.13;61.21;102265.13;5025408;28;8817;-52
2021/01/16 04:44:22;;;;;;;;;21.50;21.50;20.30;80.30;;;19.13;61.14;102272.31;5034290;28;8784;-52
2021/01/16 04:46:56;;;;;;;;;20.75;20.75;20.20;80.30;;;19.12;61.21;102289.38;5030390;28;8837;-51
2021/01/16 04:49:26;;;;;;;;;22.25;21.75;20.40;80.30;;;19.12;61.21;102292.06;5023719;28;8805;-54
2021/01/16 04:51:54;;;;;;;;;20.25;20.25;20.10;80.20;;;19.09;61.15;102294.00;5027222;28;8864;-52
2021/01/16 04:54:21;;;;;;;;;21.50;21.50;20.40;80.40;;;19.07;60.93;102293.25;5026179;28;8790;-51
2021/01/16 04:56:48;;;;;;;;;21.50;20.75;20.20;80.30;;;19.07;60.99;102295.09;5016167;28;8848;-55
2021/01/16 04:59:15;;;;;;;;;22.25;22.25;20.20;80.20;;;19.05;61.11;102294.34;5024689;28;8794;-56
2021/01/16 05:01:45;;;;;;;;;20.75;20.50;20.30;80.20;;;19.04;60.94;102303.38;5031888;28;8817;-53
2021/01/16 05:04:16;;;;;;;;;22.75;21.50;20.10;80.30;;;19.04;60.99;102288.16;5008530;28;8925;-53
2021/01/16 05:06:46;;;;;;;;;20.25;20.25;20.20;80.10;;;19.03;60.89;102288.25;5017562;28;8792;-53
2021/01/16 05:09:14;;;;;;;;;21.75;21.25;20.20;80.00;;;19.02;60.97;102283.88;5016490;28;8900;-52
2021/01/16 05:12:06;;;;;;;;;21.00;21.00;20.10;80.00;;;19.00;60.90;102283.16;5017140;28;8789;-53
2021/01/16 05:15:09;;;;;;;;;19.25;18.25;20.10;79.90;;;19.00;60.92;102280.47;5027937;28;8855;-54
2021/01/16 05:17:52;;;;;;;;;16.00;16.00;20.20;79.90;;;18.98;60.81;102285.09;5014020;28;8810;-52
2021/01/16 05:20:21;;;;;;;;;17.50;17.50;20.30;80.00;;;18.96;61.01;102273.66;5026137;28;8789;-55
2021/01/16 05:22:48;;;;;;;;;20.75;18.50;20.30;79.90;;;18.95;60.81;102277.28;5004074;28;8845;-54
2021/01/16 05:25:14;;;;;;;;;19.50;18.00;20.20;79.90;;;18.94;60.89;102276.44;5023362;28;8780;-52
2021/01/16 05:27:59;;;;;;;;;19.25;19.25;20.10;79.80;;;18.94;60.77;102259.53;5029273;28;8840;-50
2021/01/16 05:30:29;;;;;;;;;23.25;16.25;20.00;79.70;;;18.91;60.94;102259.78;5012848;28;8827;-56
2021/01/16 05:33:07;;;;;;;;;9.50;9.50;20.10;80.20;;;18.91;60.91;102265.97;5029943;28;8814;-54
2021/01/16 05:35:34;;;;;;;;;33.00;32.00;19.90;80.00;;;18.92;61.40;102250.75;5017126;28;8905;-55
2021/01/16 05:38:01;;;;;;;;;37.50;34.00;20.00;80.40;;;18.92;61.47;102254.28;5011841;28;8845;-56
2021/01/16 05:40:30;;;;;;;;;40.80;36.80;19.80;80.60;;;18.93;61.84;102241.75;5032591;28;8812;-56
2021/01/16 05:43:00;;;;;;;;;43.80;38.40;20.00;80.90;;;18.91;62.15;102239.22;5026636;28;8910;-56
2021/01/16 05:45:28;;;;;;;;;45.60;40.20;20.00;81.10;;;18.93;62.20;102236.38;5026143;28;8821;-56
2021/01/16 05:47:56;;;;;;;;;52.20;44.40;20.00;81.10;;;18.90;62.51;102228.59;5032883;28;8814;-56
2021/01/16 05:50:25;;;;;;;;;47.60;41.40;20.00;81.20;;;18.91;62.51;102236.53;5023854;28;8909;-56
2021/01/16 05:52:53;;;;;;;;;48.60;42.00;19.80;81.10;;;18.90;62.50;102225.94;5022663;28;8797;-55
2021/01/16 05:55:21;;;;;;;;;51.20;43.60;20.00;81.20;;;18.90;62.42;102229.44;5016696;28;8831;-56
2021/01/16 05:57:49;;;;;;;;;49.40;42.60;20.20;81.30;;;18.89;62.52;102230.44;5028398;28;8834;-56
2021/01/16 06:00:25;;;;;;;;;52.80;44.80;20.10;81.20;;;18.89;62.64;102227.75;5024568;28;8812;-55
2021/01/16 06:02:59;;;;;;;;;48.80;42.00;20.10;81.10;;;18.87;62.79;102216.31;5031955;28;8817;-53
2021/01/16 06:05:26;;;;;;;;;52.60;43.80;20.10;81.10;;;18.87;62.75;102227.03;5015292;28;8802;-55
2021/01/16 06:07:55;;;;;;;;;49.60;42.60;19.90;81.20;;;18.86;62.75;102220.81;5027778;28;8796;-53
2021/01/16 06:10:24;;;;;;;;;48.60;42.20;19.90;81.50;;;18.89;62.84;102225.09;5020896;28;8892;-53
2021/01/16 06:12:52;;;;;;;;;48.80;42.20;20.00;81.50;;;18.87;62.54;102222.50;5017999;28;8829;-50
2021/01/16 06:15:21;;;;;;;;;51.80;44.20;19.80;81.30;;;18.90;62.33;102217.91;5006594;28;8806;-53
2021/01/16 06:17:50;;;;;;;;;49.20;42.40;20.10;81.10;;;18.87;62.44;102210.97;5020595;28;10039;-52
2021/01/16 06:20:22;;;;;;;;;51.00;43.40;20.00;81.10;;;18.87;62.28;102219.84;5024638;28;8908;-52
2021/01/16 06:22:52;;;;;;;;;52.40;44.60;20.10;81.10;;;18.88;62.18;102228.75;5025441;28;8893;-51
2021/01/16 06:25:24;;;;;;;;;53.20;44.60;20.00;81.00;;;18.87;62.27;102232.38;5025490;28;8829;-52
2021/01/16 06:27:52;;;;;;;;;48.20;41.80;20.00;80.90;;;18.85;62.21;102239.66;5023321;28;8822;-51
2021/01/16 06:30:22;;;;;;;;;52.40;44.60;20.00;80.90;;;18.84;62.19;102249.53;5024191;28;8836;-54
2021/01/16 06:32:55;;;;;;;;;49.60;42.00;20.00;80.90;;;18.85;62.27;102247.69;5013704;28;8808;-52
2021/01/16 06:35:31;;;;;;;;;49.60;42.40;20.00;80.90;;;18.85;62.30;102248.59;5012267;28;8810;-53
2021/01/16 06:38:01;;;;;;;;;49.40;42.40;20.00;80.90;;;18.84;62.13;102252.22;5009453;28;8857;-53
2021/01/16 06:40:35;;;;;;;;;49.60;42.60;20.10;81.10;;;18.85;62.18;102245.91;5011231;28;9550;-54
2021/01/16 06:43:16;;;;;;;;;47.60;41.60;20.10;81.10;;;18.84;62.53;102243.34;5008062;28;8796;-54
2021/01/16 06:45:43;;;;;;;;;47.80;41.40;20.00;81.50;;;18.84;62.27;102241.50;5031228;28;8925;-55
2021/01/16 06:48:13;;;;;;;;;46.20;39.20;19.90;81.00;;;18.84;62.21;102249.53;5031461;28;8800;-53
2021/01/16 06:50:40;;;;;;;;;45.20;39.60;19.90;81.00;;;18.84;62.19;102251.38;5026668;28;9355;-54
2021/01/16 06:53:26;;;;;;;;;50.20;43.00;19.70;80.90;;;18.84;62.19;102254.88;4991732;28;8860;-52
2021/01/16 06:56:09;;;;;;;;;47.20;40.20;19.80;81.00;;;18.82;62.22;102250.63;5027648;28;8795;-54
2021/01/16 06:58:45;;;;;;;;;39.80;36.80;20.10;81.20;;;18.83;62.34;102252.34;5016252;28;8778;-55
2021/01/16 07:01:14;;;;;;;;;42.40;37.60;19.90;81.10;;;18.82;62.32;102251.47;5038515;28;8834;-55
2021/01/16 07:03:46;;;;;;;;;42.00;38.00;20.00;81.10;;;18.82;62.26;102253.31;5022060;28;8900;-55
2021/01/16 07:06:14;;;;;;;;;47.20;40.40;20.00;81.10;;;18.82;62.23;102255.97;5027654;28;8889;-53
2021/01/16 07:08:43;;;;;;;;;43.00;38.20;19.90;81.10;;;18.79;62.58;102243.69;5026101;28;9707;-60
2021/01/16 07:11:11;;;;;;;;;41.00;36.40;20.00;81.40;;;18.80;62.40;102248.09;5031183;28;8809;-52
2021/01/16 07:13:41;;;;;;;;;43.20;38.40;19.80;81.40;;;18.82;62.32;102248.78;5028087;28;8827;-53
2021/01/16 07:16:08;;;;;;;;;43.60;39.20;20.00;81.20;;;18.82;62.24;102254.16;5024158;28;8873;-53
2021/01/16 07:18:36;;;;;;;;;44.80;38.80;19.80;80.90;;;18.81;62.26;102254.28;5029053;28;8783;-53
2021/01/16 07:21:03;;;;;;;;;40.80;37.00;19.90;81.10;;;18.80;62.33;102253.44;5023777;28;8801;-55
2021/01/16 07:23:33;;;;;;;;;42.80;39.20;19.90;81.10;;;18.80;62.29;102239.19;5029484;28;8789;-52
2021/01/16 07:26:02;;;;;;;;;42.00;37.20;19.90;81.20;;;18.79;62.15;102246.34;5023063;28;8821;-54
2021/01/16 07:28:29;;;;;;;;;40.20;37.20;20.00;81.20;;;18.78;62.28;102247.34;5028582;28;8802;-54
2021/01/16 07:30:57;;;;;;;;;40.40;37.20;19.90;81.10;;;18.77;62.13;102252.81;5021414;28;8832;-51
2021/01/16 07:33:29;;;;;;;;;41.20;37.60;19.80;81.10;;;18.76;62.14;102264.50;5001689;28;8859;-52
2021/01/16 07:35:59;;;;;;;;;37.80;34.20;19.80;81.10;;;18.76;62.00;102264.50;4996872;28;9553;-51
2021/01/16 07:38:27;;;;;;;;;40.40;37.40;19.80;81.10;;;18.75;62.04;102271.69;5030373;28;8814;-50
2021/01/16 07:40:57;;;;;;;;;39.00;34.20;19.70;81.00;;;18.74;62.00;102266.41;5029448;28;8787;-52
2021/01/16 07:44:10;;;;;;;;;37.60;35.00;19.80;81.10;;;18.74;62.02;102271.75;5039371;28;9097;-53
2021/01/16 07:46:41;;;;;;;;;41.60;38.00;19.70;81.00;;;18.73;62.18;102268.22;5020886;28;8876;-53
2021/01/16 07:49:09;;;;;;;;;39.20;35.80;19.90;81.10;;;18.72;61.97;102268.34;5032060;28;8864;-50
2021/01/16 07:51:39;;;;;;;;;37.40;34.60;19.70;80.80;;;18.71;62.13;102270.16;5029382;28;8918;-53
2021/01/16 07:54:09;;;;;;;;;39.40;36.20;19.70;80.90;;;18.70;62.17;102273.84;5033386;28;8806;-51
2021/01/16 07:56:45;;;;;;;;;32.80;32.60;19.60;80.80;;;18.70;62.11;102275.63;5023789;28;8846;-54
2021/01/16 07:59:24;;;;;;;;;37.40;35.20;19.80;80.90;;;18.69;62.20;102272.09;5043219;28;8774;-53
2021/01/16 08:02:29;;;;;;;;;31.00;30.60;19.80;81.00;;;18.69;62.17;102265.91;5027266;28;8782;-52
2021/01/16 08:05:26;;;;;;;;;35.25;34.00;19.80;80.80;;;18.66;62.36;102270.50;5044380;28;8795;-53
2021/01/16 08:08:23;;;;;;;;;32.00;32.00;19.90;80.80;;;18.68;62.14;102274.91;5004734;28;8812;-54
2021/01/16 08:10:55;;;;;;;;;35.00;33.60;20.00;80.80;;;18.66;62.20;102267.84;5024666;28;8838;-52
2021/01/16 08:13:23;;;;;;;;;31.20;31.20;19.70;80.60;;;18.66;62.19;102270.50;5041815;28;8873;-50
2021/01/16 08:15:51;;;;;;;;;32.75;31.75;19.60;80.60;;;18.65;62.36;102260.78;5031711;28;8828;-53
2021/01/16 08:18:22;;;;;;;;;31.75;31.75;19.90;80.80;;;18.65;62.00;102265.31;5024950;28;8842;-52
2021/01/16 08:20:55;;;;;;;;;30.00;30.00;19.80;80.70;;;18.64;62.16;102263.56;5014791;28;8792;-54
2021/01/16 08:23:26;;;;;;;;;28.00;27.00;19.60;80.60;;;18.63;62.21;102261.88;5014641;28;9497;-52
2021/01/16 08:26:05;;;;;;;;;31.25;30.75;19.80;80.70;;;18.61;62.06;102259.31;5029595;28;8778;-52
2021/01/16 08:28:37;;;;;;;;;31.50;30.75;19.80;80.70;;;18.60;62.19;102254.09;5018667;28;8818;-53
2021/01/16 08:31:05;;;;;;;;;28.00;28.00;19.80;80.70;;;18.59;62.21;102247.88;5021767;28;8779;-54
2021/01/16 08:33:34;;;;;;;;;28.00;28.00;19.90;80.80;;;18.60;62.25;102254.09;5023679;28;8812;-53
2021/01/16 08:36:22;;;;;;;;;27.50;27.50;19.70;80.60;;;18.59;62.30;102255.03;5032676;28;9547;-51
2021/01/16 08:38:51;;;;;;;;;30.50;30.50;19.60;80.70;;;18.57;62.01;102247.16;5036974;28;8787;-52
2021/01/16 08:41:26;;;;;;;;;29.75;29.25;19.70;80.70;;;18.57;62.27;102251.63;5003830;28;8828;-50
2021/01/16 08:43:58;;;;;;;;;25.50;25.50;19.70;80.70;;;18.57;62.06;102256.97;5023519;28;8789;-52
2021/01/16 08:46:37;;;;;;;;;26.50;26.50;19.80;80.80;;;18.56;62.16;102256.13;5033748;28;8808;-53
2021/01/16 08:49:15;;;;;;;;;24.75;24.75;19.70;80.70;;;18.55;62.26;102256.28;5028190;28;8866;-53
2021/01/16 08:51:52;;;;;;;;;22.75;22.50;19.80;80.80;;;18.54;62.10;102260.75;5020881;28;8798;-51
2021/01/16 08:54:24;;;;;;;;;28.25;27.50;19.80;80.70;;;18.55;62.15;102269.66;5034186;28;8772;-55
2021/01/16 08:57:14;;;;;;;;;25.50;25.50;19.80;80.80;;;18.51;62.11;102258.31;5017057;28;8858;-51
2021/01/16 08:59:41;;;;;;;;;26.75;25.50;19.70;80.70;;;18.51;62.16;102252.13;5032740;28;8796;-53
2021/01/16 09:02:16;;;;;;;;;24.75;23.00;19.50;80.70;;;18.51;62.19;102254.78;5031541;28;8808;-54
2021/01/16 09:04:45;;;;;;;;;25.25;25.25;19.80;81.00;;;18.50;62.20;102253.09;5053403;28;8887;-53
2021/01/16 09:07:22;;;;;;;;;23.25;23.25;19.60;80.90;;;18.49;62.20;102249.53;5038504;28;9569;-53
2021/01/16 09:10:00;;;;;;;;;23.25;23.25;19.80;80.80;;;18.50;62.30;102258.44;5023142;28;8849;-54
2021/01/16 09:12:39;;;;;;;;;24.25;23.50;19.60;80.80;;;18.48;62.44;102247.00;5035254;28;8847;-53
2021/01/16 09:15:27;;;;;;;;;25.50;24.75;19.80;80.80;;;18.47;62.31;102247.94;5035847;28;8792;-51
2021/01/16 09:18:14;;;;;;;;;25.25;24.75;19.50;80.80;;;18.47;62.38;102246.16;5039018;28;8927;-52
2021/01/16 09:20:55;;;;;;;;;24.00;24.00;19.50;80.80;;;18.48;62.18;102255.03;5015680;28;8792;-51
2021/01/16 09:23:25;;;;;;;;;24.75;24.00;19.60;80.80;;;18.45;62.50;102248.09;5034489;28;8789;-52
2021/01/16 09:26:05;;;;;;;;;23.75;23.75;19.70;80.90;;;18.44;62.50;102243.69;5032077;28;8876;-53
2021/01/16 09:28:51;;;;;;;;;23.50;23.50;19.60;80.90;;;18.43;62.29;102240.16;5020673;28;8800;-52
2021/01/16 09:31:20;;;;;;;;;25.25;23.75;19.80;81.00;;;18.43;62.41;102242.84;5022040;28;8835;-54
2021/01/16 09:33:53;;;;;;;;;26.25;24.50;19.60;80.70;;;18.43;62.17;102240.16;5029085;28;8788;-51
2021/01/16 09:36:45;;;;;;;;;21.25;21.25;19.60;80.80;;;18.41;62.31;102231.41;5022943;28;8836;-53
2021/01/16 09:39:18;;;;;;;;;24.25;23.75;19.60;80.70;;;18.41;62.43;102231.41;5027223;28;8778;-52
2021/01/16 09:41:51;;;;;;;;;24.25;24.25;19.60;80.80;;;18.42;62.43;102226.91;5028766;28;8811;-53
2021/01/16 09:44:39;;;;;;;;;24.75;23.50;19.40;80.70;;;18.41;62.34;102231.41;5031886;28;8828;-52
2021/01/16 09:47:28;;;;;;;;;20.25;19.25;19.60;80.80;;;18.39;62.27;102222.66;5018545;28;8791;-51
2021/01/16 09:50:01;;;;;;;;;22.75;22.00;19.70;80.90;;;18.38;62.46;102218.25;5024207;28;8832;-52
2021/01/16 09:52:29;;;;;;;;;21.00;21.00;19.60;80.80;;;18.38;62.47;102217.41;5026583;28;9312;-52
2021/01/16 09:54:57;;;;;;;;;20.25;20.25;19.50;80.70;;;18.38;62.32;102214.75;5032102;28;8825;-54
2021/01/16 09:57:38;;;;;;;;;21.25;20.50;19.60;80.90;;;18.37;62.51;102213.03;5030514;28;8809;-53
2021/01/16 10:00:13;;;;;;;;;23.75;23.75;19.70;81.10;;;18.36;62.39;102212.16;5018131;28;8804;-53
2021/01/16 10:02:46;;;;;;;;;21.00;21.00;19.30;81.10;;;18.38;62.59;102218.25;5043011;28;8808;-51
2021/01/16 10:06:02;;;;;;;;;18.75;18.75;19.50;81.00;;;18.35;62.57;102207.78;5023840;28;8899;-54
2021/01/16 10:08:32;;;;;;;;;20.75;20.75;19.60;81.10;;;18.35;62.48;102205.13;5015463;28;8788;-53
2021/01/16 10:11:03;;;;;;;;;21.75;21.75;19.70;81.20;;;18.35;62.60;102202.44;5013872;28;8793;-53
2021/01/16 10:13:37;;;;;;;;;15.50;15.50;19.60;81.10;;;18.33;62.58;102203.53;5022008;28;8808;-52
2021/01/16 10:16:11;;;;;;;;;23.00;23.00;19.50;81.00;;;18.33;62.51;102199.03;5031664;28;8797;-55
2021/01/16 10:18:41;;;;;;;;;19.25;18.50;19.50;81.00;;;18.32;62.68;102196.47;5018518;28;8867;-52
2021/01/16 10:21:12;;;;;;;;;21.00;20.50;19.60;81.10;;;18.32;62.56;102189.31;5014771;28;8915;-51
2021/01/16 10:23:42;;;;;;;;;22.50;22.50;19.40;81.00;;;18.31;62.47;102187.59;5026205;28;8773;-48
2021/01/16 10:26:16;;;;;;;;;18.50;18.25;19.50;81.10;;;18.29;62.63;102181.50;5019220;28;8903;-54
2021/01/16 10:28:54;;;;;;;;;20.75;20.50;19.50;81.10;;;18.30;62.51;102175.19;5017024;28;8879;-49
2021/01/16 10:31:26;;;;;;;;;17.00;17.00;19.60;81.10;;;18.30;62.68;102185.91;5017454;28;8808;-51